Terminal Aerodrome Forecast
Issued by NWS

Home | Current Version | Previous Version | Graphics & Text | Print | Product List | Glossary On
Versions: 1 2 3 4 5 6 7 8 9 10 11 12 13 14
736
FTUS43 KBIS 022324
TAFJMS
TAF
KJMS 022324Z 0300/0324 19013KT P6SM FEW250
     FM030200 20004KT P6SM FEW250
     FM030600 26004KT P6SM FEW250
     FM031500 34016G25KT P6SM SKC=

USA.gov is the U.S. government's official web portal to all federal, state and local government web resources and services.